createdAt,value
2023-01-09T00:00:09.968Z,50.81
2023-01-09T00:02:40.630Z,50.71
2023-01-09T00:05:08.280Z,50.65
2023-01-09T00:07:34.894Z,50.79
2023-01-09T00:10:01.426Z,50.77
2023-01-09T00:12:28.058Z,50.79
2023-01-09T00:14:54.577Z,50.85
2023-01-09T00:17:21.103Z,50.79
2023-01-09T00:19:47.680Z,50.72
2023-01-09T00:22:14.220Z,50.74
2023-01-09T00:24:40.746Z,50.78
2023-01-09T00:27:07.355Z,50.53
2023-01-09T00:29:33.924Z,50.78
2023-01-09T00:32:00.532Z,50.80
2023-01-09T00:34:27.222Z,50.94
2023-01-09T00:36:56.189Z,50.75
2023-01-09T00:39:23.303Z,50.69
2023-01-09T00:41:52.236Z,50.79
2023-01-09T00:44:49.710Z,50.80
2023-01-09T00:47:25.710Z,50.68
2023-01-09T00:49:53.246Z,50.70
2023-01-09T00:52:19.878Z,50.75
2023-01-09T00:54:46.511Z,50.83
2023-01-09T00:57:14.171Z,50.84
2023-01-09T00:59:41.532Z,50.64
2023-01-09T01:02:08.555Z,50.59
2023-01-09T01:04:54.156Z,50.66
2023-01-09T01:07:38.539Z,50.62
2023-01-09T01:10:17.111Z,50.76
2023-01-09T01:12:44.250Z,50.71
2023-01-09T01:15:11.421Z,50.73
2023-01-09T01:17:39.096Z,50.70
2023-01-09T01:20:07.397Z,50.67
2023-01-09T01:22:33.961Z,50.80
2023-01-09T01:25:00.520Z,50.68
2023-01-09T01:27:28.214Z,50.73
2023-01-09T01:29:55.056Z,50.76
2023-01-09T01:32:21.611Z,50.72
2023-01-09T01:34:48.129Z,50.74
2023-01-09T01:37:14.726Z,50.61
2023-01-09T01:39:41.540Z,50.63
2023-01-09T01:42:08.079Z,50.80
2023-01-09T01:44:57.859Z,50.62
2023-01-09T01:47:33.171Z,50.70
2023-01-09T01:50:01.993Z,50.55
2023-01-09T01:52:30.155Z,50.70
2023-01-09T01:54:56.721Z,50.61
2023-01-09T01:57:23.467Z,50.71
2023-01-09T01:59:53.898Z,50.75
2023-01-09T02:02:23.748Z,50.71
2023-01-09T02:04:52.369Z,50.83
2023-01-09T02:07:18.949Z,50.56
2023-01-09T02:09:46.222Z,50.72
2023-01-09T02:12:24.370Z,50.80
2023-01-09T02:14:58.286Z,50.59
2023-01-09T02:17:36.992Z,50.81
2023-01-09T02:20:22.058Z,50.62
2023-01-09T02:23:16.208Z,50.81
2023-01-09T02:25:57.772Z,50.77
2023-01-09T02:28:51.787Z,50.75
2023-01-09T02:31:37.795Z,50.65
2023-01-09T02:34:35.243Z,50.66
2023-01-09T02:37:05.516Z,50.93
2023-01-09T02:39:38.175Z,50.80
2023-01-09T02:42:07.615Z,50.97
2023-01-09T02:44:36.834Z,50.82
2023-01-09T02:47:17.479Z,50.84
2023-01-09T02:49:46.017Z,50.83
2023-01-09T02:52:45.314Z,50.77
2023-01-09T02:55:22.633Z,50.66
2023-01-09T02:58:34.476Z,50.59
2023-01-09T03:01:06.656Z,50.63
2023-01-09T03:04:06.878Z,50.60
2023-01-09T03:06:42.900Z,50.67
2023-01-09T03:09:15.396Z,50.62
2023-01-09T03:11:49.935Z,50.69
2023-01-09T03:14:18.037Z,50.65
2023-01-09T03:16:47.106Z,50.49
2023-01-09T03:19:18.603Z,50.60
2023-01-09T03:21:45.382Z,50.73
2023-01-09T03:24:12.223Z,50.56
2023-01-09T03:26:38.818Z,50.60
2023-01-09T03:29:05.426Z,50.50
2023-01-09T03:31:32.136Z,50.58
2023-01-09T03:33:58.667Z,50.62
2023-01-09T03:36:25.505Z,50.64
2023-01-09T03:38:52.022Z,50.77
2023-01-09T03:41:19.714Z,50.65
2023-01-09T03:43:47.897Z,50.55
2023-01-09T03:46:16.087Z,50.76
2023-01-09T03:48:42.861Z,50.64
2023-01-09T03:51:09.601Z,50.51
2023-01-09T03:53:36.236Z,50.74
2023-01-09T03:56:02.763Z,50.60
2023-01-09T03:58:29.290Z,50.50
2023-01-09T04:01:03.744Z,50.56
2023-01-09T04:03:30.465Z,50.53
2023-01-09T04:05:57.114Z,50.48
2023-01-09T04:08:23.677Z,50.57
2023-01-09T04:10:50.891Z,50.50
2023-01-09T04:13:17.954Z,50.59
2023-01-09T04:15:44.505Z,50.57
2023-01-09T04:18:11.129Z,50.73
2023-01-09T04:20:37.717Z,50.55
2023-01-09T04:23:04.301Z,50.65
2023-01-09T04:25:30.834Z,50.60
2023-01-09T04:27:57.414Z,50.49
2023-01-09T04:30:24.006Z,50.67
2023-01-09T04:32:52.012Z,50.52
2023-01-09T04:35:19.085Z,50.50
2023-01-09T04:37:45.621Z,50.44
2023-01-09T04:40:12.594Z,50.43
2023-01-09T04:42:39.915Z,50.62
2023-01-09T04:45:07.624Z,50.46
2023-01-09T04:47:34.221Z,50.56
2023-01-09T04:50:00.988Z,50.61
2023-01-09T04:52:28.660Z,50.75
2023-01-09T04:54:55.249Z,50.70
2023-01-09T04:57:22.341Z,50.63
2023-01-09T04:59:48.864Z,50.34
2023-01-09T05:02:15.444Z,50.51
2023-01-09T05:04:42.083Z,50.53
2023-01-09T05:07:08.724Z,50.54
2023-01-09T05:09:36.107Z,50.60
2023-01-09T05:12:02.972Z,50.75
2023-01-09T05:14:29.520Z,50.73
2023-01-09T05:16:56.266Z,50.69
2023-01-09T05:19:23.684Z,50.68
2023-01-09T05:21:50.277Z,50.60
2023-01-09T05:24:16.800Z,50.51
2023-01-09T05:26:43.354Z,50.59
2023-01-09T05:29:10.511Z,50.70
2023-01-09T05:31:37.103Z,50.70
2023-01-09T05:34:03.668Z,50.71
2023-01-09T05:36:30.212Z,50.73
2023-01-09T05:38:57.922Z,50.62
2023-01-09T05:41:26.172Z,50.67
2023-01-09T05:43:52.711Z,50.45
2023-01-09T05:46:19.266Z,50.54
2023-01-09T05:48:45.871Z,50.86
2023-01-09T05:51:12.935Z,50.54
2023-01-09T05:53:39.544Z,50.65
2023-01-09T05:56:06.355Z,50.51
2023-01-09T05:58:32.889Z,50.53
2023-01-09T06:00:59.521Z,50.63
2023-01-09T06:03:26.126Z,50.64
2023-01-09T06:05:52.673Z,50.60
2023-01-09T06:08:19.323Z,50.76
2023-01-09T06:10:46.508Z,50.66
2023-01-09T06:13:13.079Z,50.77
2023-01-09T06:15:39.638Z,50.68
2023-01-09T06:18:06.219Z,50.61
2023-01-09T06:20:32.779Z,50.74
2023-01-09T06:22:59.356Z,50.81
2023-01-09T06:25:26.056Z,50.74
2023-01-09T06:27:52.611Z,50.68
2023-01-09T06:30:19.879Z,50.80
2023-01-09T06:32:49.257Z,50.63
2023-01-09T06:35:20.871Z,50.71
2023-01-09T06:37:48.401Z,50.66
2023-01-09T06:40:15.715Z,50.58
2023-01-09T06:42:48.486Z,50.71
2023-01-09T06:45:15.646Z,50.57
2023-01-09T06:47:42.314Z,50.67
2023-01-09T06:50:09.547Z,50.69
2023-01-09T06:52:36.803Z,50.75
2023-01-09T06:55:04.079Z,50.65
2023-01-09T06:57:30.727Z,50.63
2023-01-09T06:59:57.881Z,50.51
2023-01-09T07:02:25.034Z,50.69
2023-01-09T07:04:51.600Z,50.76
2023-01-09T07:07:19.696Z,50.70
2023-01-09T07:09:46.422Z,50.59
2023-01-09T07:12:13.054Z,50.56
2023-01-09T07:14:39.697Z,50.78
2023-01-09T07:17:06.780Z,50.75
2023-01-09T07:19:33.312Z,50.63
2023-01-09T07:21:59.876Z,50.57
2023-01-09T07:24:26.450Z,50.17
2023-01-09T07:26:53.048Z,49.86
2023-01-09T07:29:19.676Z,49.32
2023-01-09T07:31:47.203Z,49.16
2023-01-09T07:34:13.850Z,48.96
2023-01-09T07:36:40.409Z,49.03
2023-01-09T07:39:06.973Z,48.78
2023-01-09T07:41:33.513Z,48.76
2023-01-09T07:44:00.115Z,48.65
2023-01-09T07:46:28.368Z,48.61
2023-01-09T07:48:54.912Z,48.57
2023-01-09T07:51:21.805Z,48.54
2023-01-09T07:53:48.338Z,48.47
2023-01-09T07:56:14.891Z,48.69
2023-01-09T07:58:41.501Z,48.57
2023-01-09T08:01:08.075Z,48.74
2023-01-09T08:03:34.938Z,48.75
2023-01-09T08:06:01.527Z,48.56
2023-01-09T08:08:28.063Z,48.55
2023-01-09T08:10:54.597Z,48.68
2023-01-09T08:13:21.213Z,48.74
2023-01-09T08:15:47.821Z,48.46
2023-01-09T08:18:14.433Z,48.66
2023-01-09T08:20:43.793Z,48.54
2023-01-09T08:23:10.383Z,48.48
2023-01-09T08:25:36.898Z,48.39
2023-01-09T08:28:03.492Z,48.44
2023-01-09T08:30:30.114Z,48.70
2023-01-09T08:32:56.643Z,51.00
2023-01-09T08:35:23.171Z,51.36
2023-01-09T08:37:49.729Z,51.58
2023-01-09T08:40:17.041Z,51.60
2023-01-09T08:43:02.201Z,51.49
2023-01-09T08:45:47.928Z,51.50
2023-01-09T08:48:14.715Z,51.61
2023-01-09T08:50:41.306Z,51.81
2023-01-09T08:53:07.875Z,51.69
2023-01-09T08:55:34.398Z,51.62
2023-01-09T08:58:01.323Z,51.53
2023-01-09T09:00:28.194Z,51.64
2023-01-09T09:02:56.573Z,51.60
2023-01-09T09:05:24.548Z,51.53
2023-01-09T09:07:53.868Z,51.40
2023-01-09T09:10:24.581Z,51.22
2023-01-09T09:12:52.683Z,51.15
2023-01-09T09:15:26.458Z,51.16
2023-01-09T09:17:54.614Z,51.25
2023-01-09T09:20:22.612Z,51.21
2023-01-09T09:22:49.208Z,50.88
2023-01-09T09:25:16.271Z,50.93
2023-01-09T09:27:43.264Z,50.97
2023-01-09T09:30:10.590Z,50.85
2023-01-09T09:32:38.354Z,51.06
2023-01-09T09:35:05.638Z,51.06
2023-01-09T09:37:32.513Z,51.19
2023-01-09T09:40:01.471Z,50.96
2023-01-09T09:43:00.822Z,51.15
2023-01-09T09:45:48.771Z,50.97
2023-01-09T09:48:36.171Z,50.90
2023-01-09T09:51:24.411Z,51.01
2023-01-09T09:53:59.878Z,50.91
2023-01-09T09:56:27.801Z,50.78
2023-01-09T09:59:01.520Z,50.80
2023-01-09T10:01:41.048Z,50.97
2023-01-09T10:04:15.664Z,51.11
2023-01-09T10:06:44.547Z,50.89
2023-01-09T10:09:41.471Z,50.80
2023-01-09T10:12:08.247Z,50.83
2023-01-09T10:14:34.769Z,50.84
2023-01-09T10:17:13.122Z,50.73
2023-01-09T10:20:02.772Z,50.80
2023-01-09T10:22:44.353Z,50.71
2023-01-09T10:25:13.955Z,50.77
2023-01-09T10:27:49.518Z,50.76
2023-01-09T10:30:31.137Z,50.68
2023-01-09T10:33:11.488Z,50.51
2023-01-09T10:36:06.282Z,50.80
2023-01-09T10:38:35.947Z,50.80
2023-01-09T10:41:24.031Z,50.64
2023-01-09T10:44:17.936Z,50.85
2023-01-09T10:46:55.491Z,50.71
2023-01-09T10:49:24.109Z,50.79
2023-01-09T10:51:52.545Z,50.42
2023-01-09T10:54:23.368Z,50.72
2023-01-09T10:56:58.514Z,50.82
2023-01-09T10:59:25.249Z,50.55
2023-01-09T11:01:52.157Z,50.74
2023-01-09T11:04:37.352Z,50.34
2023-01-09T11:07:19.040Z,50.55
2023-01-09T11:09:56.875Z,50.61
2023-01-09T11:12:26.039Z,50.44
2023-01-09T11:14:52.611Z,50.61
2023-01-09T11:17:21.309Z,50.38
2023-01-09T11:20:15.414Z,50.77
2023-01-09T11:22:43.401Z,50.71
2023-01-09T11:25:18.120Z,50.52
2023-01-09T11:28:06.630Z,50.59
2023-01-09T11:30:37.426Z,50.34
2023-01-09T11:33:15.243Z,50.17
2023-01-09T11:35:51.482Z,50.21
2023-01-09T11:38:18.364Z,50.29
2023-01-09T11:40:54.368Z,50.10
2023-01-09T11:43:22.627Z,50.33
2023-01-09T11:46:00.669Z,50.70
2023-01-09T11:48:37.455Z,50.91
2023-01-09T11:51:21.779Z,50.71
2023-01-09T11:54:10.135Z,50.82
2023-01-09T11:56:37.474Z,50.64
2023-01-09T11:59:15.214Z,50.70
2023-01-09T12:01:59.953Z,50.66
2023-01-09T12:04:44.217Z,50.52
2023-01-09T12:07:36.078Z,50.52
2023-01-09T12:10:24.427Z,50.43
2023-01-09T12:13:03.154Z,50.55
2023-01-09T12:15:33.657Z,50.65
2023-01-09T12:18:12.417Z,50.73
2023-01-09T12:20:57.479Z,50.56
2023-01-09T12:23:48.933Z,50.74
2023-01-09T12:26:17.276Z,50.61
2023-01-09T12:28:43.764Z,50.84
2023-01-09T12:34:20.773Z,50.69
2023-01-09T12:37:06.975Z,50.64
2023-01-09T12:39:44.524Z,50.60
2023-01-09T12:42:24.098Z,50.51
2023-01-09T12:45:00.260Z,50.51
2023-01-09T12:47:46.579Z,50.37
2023-01-09T12:50:22.231Z,50.22
2023-01-09T12:52:57.559Z,50.21
2023-01-09T12:55:25.665Z,50.27
2023-01-09T12:57:56.115Z,50.07
2023-01-09T13:00:25.863Z,50.37
2023-01-09T13:03:12.948Z,50.20
2023-01-09T13:05:49.365Z,50.11
2023-01-09T13:08:34.701Z,50.00
2023-01-09T13:11:20.605Z,49.82
2023-01-09T13:13:53.368Z,50.00
2023-01-09T13:16:33.542Z,50.01
2023-01-09T13:19:31.467Z,49.93
2023-01-09T13:21:58.658Z,49.96
2023-01-09T13:24:31.120Z,49.82
2023-01-09T13:27:01.191Z,49.80
2023-01-09T13:29:34.545Z,49.86
2023-01-09T13:32:23.986Z,49.75
2023-01-09T13:34:52.738Z,49.82
2023-01-09T13:37:30.609Z,49.89
2023-01-09T13:40:21.980Z,49.86
2023-01-09T13:43:10.920Z,49.71
2023-01-09T13:45:38.502Z,49.97
2023-01-09T13:48:11.231Z,49.66
2023-01-09T13:50:38.499Z,49.83
2023-01-09T13:53:20.276Z,49.67
2023-01-09T13:55:59.368Z,49.72
2023-01-09T13:58:27.307Z,49.88
2023-01-09T14:00:59.797Z,49.66
2023-01-09T14:03:35.191Z,49.67
2023-01-09T14:06:02.354Z,49.69
2023-01-09T14:08:30.316Z,49.62
2023-01-09T14:11:01.645Z,49.69
2023-01-09T14:13:31.341Z,49.53
2023-01-09T14:16:20.421Z,49.59
2023-01-09T14:19:05.252Z,49.44
2023-01-09T14:21:47.238Z,49.41
2023-01-09T14:24:21.202Z,49.46
2023-01-09T14:26:56.717Z,49.38
2023-01-09T14:29:36.209Z,49.33
2023-01-09T14:32:21.178Z,49.35
2023-01-09T14:35:11.717Z,49.35
2023-01-09T14:37:40.703Z,49.39
2023-01-09T14:40:15.405Z,49.36
2023-01-09T14:42:42.178Z,49.57
2023-01-09T14:45:19.368Z,49.44
2023-01-09T14:48:00.895Z,49.66
2023-01-09T14:50:34.430Z,49.55
2023-01-09T14:53:05.611Z,49.34
2023-01-09T14:56:01.790Z,49.50
2023-01-09T14:58:30.548Z,49.54
2023-01-09T15:01:03.245Z,49.59
2023-01-09T15:03:33.200Z,49.55
2023-01-09T15:06:00.486Z,49.76
2023-01-09T15:08:27.861Z,49.51
2023-01-09T15:10:56.067Z,49.50
2023-01-09T15:13:44.083Z,49.52
2023-01-09T15:16:19.398Z,49.57
2023-01-09T15:18:48.490Z,49.41
2023-01-09T15:21:18.603Z,49.46
2023-01-09T15:23:45.163Z,49.41
2023-01-09T15:26:29.435Z,49.33
2023-01-09T15:29:23.095Z,49.36
2023-01-09T15:32:12.589Z,49.25
2023-01-09T15:34:39.416Z,49.35
2023-01-09T15:37:26.144Z,49.49
2023-01-09T15:39:52.944Z,49.46
2023-01-09T15:42:49.965Z,49.26
2023-01-09T15:45:38.965Z,49.24
2023-01-09T15:48:32.885Z,49.41
2023-01-09T15:51:13.367Z,49.40
2023-01-09T15:53:41.050Z,49.36
2023-01-09T15:56:17.169Z,49.46
2023-01-09T15:58:48.918Z,49.79
2023-01-09T16:01:32.254Z,49.37
2023-01-09T16:04:10.946Z,49.45
2023-01-09T16:06:45.263Z,49.46
2023-01-09T16:09:18.319Z,49.46
2023-01-09T16:11:52.735Z,49.54
2023-01-09T16:14:24.960Z,49.35
2023-01-09T16:16:52.391Z,49.39
2023-01-09T16:19:58.171Z,49.35
2023-01-09T16:22:27.225Z,49.32
2023-01-09T16:24:55.727Z,49.36
2023-01-09T16:27:24.218Z,49.45
2023-01-09T16:29:57.554Z,49.41
2023-01-09T16:32:36.627Z,49.35
2023-01-09T16:35:08.023Z,49.39
2023-01-09T16:37:35.971Z,49.39
2023-01-09T16:40:05.295Z,49.21
2023-01-09T16:42:53.771Z,49.45
2023-01-09T16:45:21.018Z,49.33
2023-01-09T16:47:47.558Z,49.44
2023-01-09T16:50:14.135Z,49.41
2023-01-09T16:52:40.714Z,49.34
2023-01-09T16:55:07.551Z,49.24
2023-01-09T16:57:34.896Z,49.38
2023-01-09T17:00:01.874Z,49.37
2023-01-09T17:02:28.435Z,49.31
2023-01-09T17:04:59.419Z,49.47
2023-01-09T17:07:25.973Z,49.19
2023-01-09T17:09:53.334Z,49.18
2023-01-09T17:12:22.074Z,49.52
2023-01-09T17:14:49.184Z,49.25
2023-01-09T17:17:16.813Z,49.54
2023-01-09T17:19:43.555Z,49.36
2023-01-09T17:22:10.083Z,49.35
2023-01-09T17:24:54.907Z,49.36
2023-01-09T17:27:54.934Z,49.27
2023-01-09T17:30:21.717Z,49.26
2023-01-09T17:32:48.786Z,49.30
2023-01-09T17:35:16.152Z,49.08
2023-01-09T17:37:43.179Z,49.12
2023-01-09T17:40:20.362Z,49.02
2023-01-09T17:42:46.934Z,49.16
2023-01-09T17:45:13.771Z,49.35
2023-01-09T17:47:40.325Z,49.19
2023-01-09T17:50:07.301Z,49.20
2023-01-09T17:52:33.890Z,49.22
2023-01-09T17:55:05.294Z,49.16
2023-01-09T17:57:32.726Z,49.56
2023-01-09T17:59:59.282Z,49.50
2023-01-09T18:02:25.891Z,49.26
2023-01-09T18:04:52.480Z,48.87
2023-01-09T18:07:19.567Z,48.74
2023-01-09T18:09:46.156Z,48.39
2023-01-09T18:12:12.783Z,48.33
2023-01-09T18:14:40.682Z,48.65
2023-01-09T18:17:07.463Z,48.29
2023-01-09T18:19:34.031Z,48.22
2023-01-09T18:22:00.665Z,48.10
2023-01-09T18:24:27.184Z,48.22
2023-01-09T18:26:54.360Z,48.14
2023-01-09T18:29:21.360Z,48.32
2023-01-09T18:31:48.274Z,48.15
2023-01-09T18:34:14.947Z,48.26
2023-01-09T18:36:41.518Z,48.13
2023-01-09T18:39:08.749Z,48.14
2023-01-09T18:41:35.309Z,48.10
2023-01-09T18:44:02.147Z,48.34
2023-01-09T18:46:32.032Z,48.14
2023-01-09T18:49:02.513Z,48.13
2023-01-09T18:51:30.037Z,48.27
2023-01-09T18:53:57.093Z,48.29
2023-01-09T18:56:24.759Z,48.23
2023-01-09T18:58:56.546Z,48.22
2023-01-09T19:01:23.232Z,48.45
2023-01-09T19:03:49.924Z,48.34
2023-01-09T19:06:16.477Z,48.31
2023-01-09T19:08:43.028Z,48.28
2023-01-09T19:11:09.621Z,48.21
2023-01-09T19:13:37.435Z,48.21
2023-01-09T19:16:05.560Z,48.17
2023-01-09T19:18:40.030Z,48.09
2023-01-09T19:21:10.896Z,48.19
2023-01-09T19:23:37.437Z,48.33
2023-01-09T19:26:06.085Z,48.29
2023-01-09T19:28:32.641Z,48.69
2023-01-09T19:30:59.173Z,48.52
2023-01-09T19:33:25.808Z,48.58
2023-01-09T19:35:52.911Z,48.38
2023-01-09T19:38:26.828Z,48.36
2023-01-09T19:40:53.377Z,48.48
2023-01-09T19:43:28.777Z,48.37
2023-01-09T19:45:56.205Z,48.54
2023-01-09T19:48:23.964Z,48.59
2023-01-09T19:50:50.818Z,48.24
2023-01-09T19:53:17.386Z,48.50
2023-01-09T19:55:43.910Z,48.53
2023-01-09T19:58:11.080Z,48.74
2023-01-09T20:00:37.643Z,48.60
2023-01-09T20:03:04.345Z,48.80
2023-01-09T20:05:30.928Z,49.09
2023-01-09T20:07:57.630Z,49.15
2023-01-09T20:10:24.217Z,49.22
2023-01-09T20:12:50.804Z,49.13
2023-01-09T20:15:17.341Z,48.99
2023-01-09T20:17:43.915Z,49.03
2023-01-09T20:20:10.918Z,48.94
2023-01-09T20:22:37.445Z,49.01
2023-01-09T20:25:04.214Z,48.63
2023-01-09T20:27:30.759Z,49.17
2023-01-09T20:29:57.303Z,49.10
2023-01-09T20:32:23.875Z,49.10
2023-01-09T20:34:50.440Z,49.20
2023-01-09T20:37:17.009Z,49.41
2023-01-09T20:39:43.661Z,49.51
2023-01-09T20:42:10.186Z,49.60
2023-01-09T20:44:36.777Z,49.44
2023-01-09T20:47:03.326Z,49.86
2023-01-09T20:49:29.907Z,49.83
2023-01-09T20:51:56.480Z,49.68
2023-01-09T20:54:23.124Z,49.84
2023-01-09T20:56:50.124Z,49.73
2023-01-09T20:59:20.332Z,49.78
2023-01-09T21:01:46.965Z,50.05
2023-01-09T21:04:13.595Z,49.60
2023-01-09T21:06:40.387Z,49.72
2023-01-09T21:09:07.007Z,49.86
2023-01-09T21:11:33.539Z,49.77
2023-01-09T21:14:00.145Z,49.84
2023-01-09T21:16:27.027Z,49.89
2023-01-09T21:18:54.275Z,50.08
2023-01-09T21:21:23.811Z,50.05
2023-01-09T21:23:52.612Z,50.15
2023-01-09T21:26:22.493Z,49.75
2023-01-09T21:28:50.244Z,49.84
2023-01-09T21:31:19.555Z,49.91
2023-01-09T21:33:48.326Z,49.75
2023-01-09T21:36:15.342Z,50.01
2023-01-09T21:38:41.877Z,49.86
2023-01-09T21:41:37.345Z,49.96
2023-01-09T21:44:22.535Z,49.99
2023-01-09T21:46:51.873Z,49.98
2023-01-09T21:49:20.146Z,49.99
2023-01-09T21:51:46.726Z,50.03
2023-01-09T21:54:13.289Z,49.79
2023-01-09T21:56:39.859Z,50.46
2023-01-09T21:59:06.620Z,50.01
2023-01-09T22:01:33.178Z,49.83
2023-01-09T22:03:59.736Z,49.86
2023-01-09T22:06:26.341Z,50.00
2023-01-09T22:08:52.962Z,50.11
2023-01-09T22:11:19.488Z,50.10
2023-01-09T22:13:49.870Z,49.92
2023-01-09T22:16:16.874Z,50.01
2023-01-09T22:18:43.466Z,49.93
2023-01-09T22:21:10.073Z,49.97
2023-01-09T22:23:36.709Z,50.14
2023-01-09T22:26:08.307Z,49.90
2023-01-09T22:28:34.878Z,50.09
2023-01-09T22:31:01.449Z,49.65
2023-01-09T22:33:27.990Z,49.88
2023-01-09T22:35:54.541Z,49.73
2023-01-09T22:38:21.066Z,49.96
2023-01-09T22:40:47.604Z,50.00
2023-01-09T22:43:16.353Z,49.83
2023-01-09T22:45:43.102Z,49.95
2023-01-09T22:48:09.977Z,49.83
2023-01-09T22:50:36.948Z,49.90
2023-01-09T22:53:03.676Z,49.94
2023-01-09T22:55:30.235Z,49.83
2023-01-09T22:57:56.781Z,49.98
2023-01-09T23:00:23.347Z,50.06
2023-01-09T23:02:49.977Z,49.98
2023-01-09T23:05:16.855Z,49.75
2023-01-09T23:07:43.435Z,49.92
2023-01-09T23:10:10.524Z,49.87
2023-01-09T23:12:37.072Z,50.10
2023-01-09T23:15:03.766Z,49.96
2023-01-09T23:17:30.317Z,49.70
2023-01-09T23:19:56.883Z,50.02
2023-01-09T23:22:23.406Z,49.84
2023-01-09T23:24:49.964Z,49.78
2023-01-09T23:27:16.560Z,49.93
2023-01-09T23:29:43.089Z,49.97
2023-01-09T23:32:09.662Z,49.83
2023-01-09T23:34:36.325Z,49.79
2023-01-09T23:37:05.881Z,49.96
2023-01-09T23:39:32.782Z,49.81
2023-01-09T23:42:17.657Z,49.73
2023-01-09T23:44:44.198Z,49.81
2023-01-09T23:47:10.757Z,49.62
2023-01-09T23:49:37.416Z,49.78
2023-01-09T23:52:06.033Z,49.83
2023-01-09T23:54:32.708Z,49.71
2023-01-09T23:56:59.234Z,49.65
2023-01-09T23:59:25.783Z,49.65
